sensor_id;sensor_type;location;lat;lon;timestamp;P1;durP1;ratioP1;P2;durP2;ratioP2
22470;SDS011;11402;51.374;6.594;2023-12-20T00:01:26;26.90;;;12.77;;
22470;SDS011;11402;51.374;6.594;2023-12-20T00:03:52;31.77;;;12.88;;
22470;SDS011;11402;51.374;6.594;2023-12-20T00:06:18;28.63;;;11.77;;
22470;SDS011;11402;51.374;6.594;2023-12-20T00:08:44;26.88;;;12.55;;
22470;SDS011;11402;51.374;6.594;2023-12-20T00:11:10;27.55;;;11.90;;
22470;SDS011;11402;51.374;6.594;2023-12-20T00:13:36;27.77;;;12.13;;
22470;SDS011;11402;51.374;6.594;2023-12-20T00:16:02;29.77;;;12.85;;
22470;SDS011;11402;51.374;6.594;2023-12-20T00:18:28;29.55;;;12.90;;
22470;SDS011;11402;51.374;6.594;2023-12-20T00:20:54;26.35;;;12.45;;
22470;SDS011;11402;51.374;6.594;2023-12-20T00:23:20;26.85;;;12.38;;
22470;SDS011;11402;51.374;6.594;2023-12-20T00:25:48;26.10;;;12.75;;
22470;SDS011;11402;51.374;6.594;2023-12-20T00:28:14;27.65;;;12.57;;
22470;SDS011;11402;51.374;6.594;2023-12-20T00:30:40;28.63;;;12.70;;
22470;SDS011;11402;51.374;6.594;2023-12-20T00:33:06;30.50;;;14.20;;
22470;SDS011;11402;51.374;6.594;2023-12-20T00:35:32;23.65;;;12.20;;
22470;SDS011;11402;51.374;6.594;2023-12-20T00:37:58;29.55;;;13.55;;
22470;SDS011;11402;51.374;6.594;2023-12-20T00:40:24;34.13;;;13.32;;
22470;SDS011;11402;51.374;6.594;2023-12-20T00:42:50;26.55;;;13.70;;
22470;SDS011;11402;51.374;6.594;2023-12-20T00:45:16;29.67;;;13.93;;
22470;SDS011;11402;51.374;6.594;2023-12-20T00:47:42;32.50;;;14.77;;
22470;SDS011;11402;51.374;6.594;2023-12-20T00:50:08;27.83;;;12.75;;
22470;SDS011;11402;51.374;6.594;2023-12-20T00:52:34;29.88;;;13.07;;
22470;SDS011;11402;51.374;6.594;2023-12-20T00:55:00;33.55;;;14.38;;
22470;SDS011;11402;51.374;6.594;2023-12-20T00:57:26;32.20;;;14.90;;
22470;SDS011;11402;51.374;6.594;2023-12-20T00:59:52;36.65;;;15.68;;
22470;SDS011;11402;51.374;6.594;2023-12-20T01:02:18;30.98;;;15.93;;
22470;SDS011;11402;51.374;6.594;2023-12-20T01:04:44;33.30;;;16.08;;
22470;SDS011;11402;51.374;6.594;2023-12-20T01:07:10;36.63;;;16.80;;
22470;SDS011;11402;51.374;6.594;2023-12-20T01:09:36;32.60;;;16.38;;
22470;SDS011;11402;51.374;6.594;2023-12-20T01:12:02;32.83;;;17.55;;
22470;SDS011;11402;51.374;6.594;2023-12-20T01:14:28;33.90;;;17.83;;
22470;SDS011;11402;51.374;6.594;2023-12-20T01:16:54;35.33;;;19.10;;
22470;SDS011;11402;51.374;6.594;2023-12-20T01:19:20;31.67;;;16.50;;
22470;SDS011;11402;51.374;6.594;2023-12-20T01:21:46;26.73;;;16.67;;
22470;SDS011;11402;51.374;6.594;2023-12-20T01:24:12;26.75;;;15.02;;
22470;SDS011;11402;51.374;6.594;2023-12-20T01:26:38;29.13;;;15.85;;
22470;SDS011;11402;51.374;6.594;2023-12-20T01:29:04;30.73;;;16.75;;
22470;SDS011;11402;51.374;6.594;2023-12-20T01:31:30;30.15;;;16.52;;
22470;SDS011;11402;51.374;6.594;2023-12-20T01:33:56;32.55;;;15.80;;
22470;SDS011;11402;51.374;6.594;2023-12-20T01:36:22;24.35;;;15.18;;
22470;SDS011;11402;51.374;6.594;2023-12-20T01:38:48;28.45;;;14.20;;
22470;SDS011;11402;51.374;6.594;2023-12-20T01:41:14;29.02;;;14.32;;
22470;SDS011;11402;51.374;6.594;2023-12-20T01:43:40;32.78;;;13.52;;
22470;SDS011;11402;51.374;6.594;2023-12-20T01:46:06;24.70;;;12.63;;
22470;SDS011;11402;51.374;6.594;2023-12-20T01:48:32;29.95;;;11.13;;
22470;SDS011;11402;51.374;6.594;2023-12-20T01:51:01;29.20;;;13.30;;
22470;SDS011;11402;51.374;6.594;2023-12-20T01:53:28;34.85;;;14.27;;
22470;SDS011;11402;51.374;6.594;2023-12-20T01:55:55;29.55;;;13.07;;
22470;SDS011;11402;51.374;6.594;2023-12-20T01:58:22;28.88;;;13.35;;
22470;SDS011;11402;51.374;6.594;2023-12-20T02:00:48;27.17;;;12.23;;
22470;SDS011;11402;51.374;6.594;2023-12-20T02:03:14;31.38;;;12.45;;
22470;SDS011;11402;51.374;6.594;2023-12-20T02:05:41;31.30;;;11.82;;
22470;SDS011;11402;51.374;6.594;2023-12-20T02:08:07;27.95;;;11.45;;
22470;SDS011;11402;51.374;6.594;2023-12-20T02:10:34;29.33;;;11.07;;
22470;SDS011;11402;51.374;6.594;2023-12-20T02:13:00;29.98;;;10.55;;
22470;SDS011;11402;51.374;6.594;2023-12-20T02:15:25;28.85;;;10.48;;
22470;SDS011;11402;51.374;6.594;2023-12-20T02:17:51;26.02;;;11.35;;
22470;SDS011;11402;51.374;6.594;2023-12-20T02:20:17;26.50;;;10.85;;
22470;SDS011;11402;51.374;6.594;2023-12-20T02:22:43;29.20;;;10.43;;
22470;SDS011;11402;51.374;6.594;2023-12-20T02:25:09;33.00;;;9.98;;
22470;SDS011;11402;51.374;6.594;2023-12-20T02:27:38;30.88;;;11.10;;
22470;SDS011;11402;51.374;6.594;2023-12-20T02:30:05;27.00;;;10.43;;
22470;SDS011;11402;51.374;6.594;2023-12-20T02:32:31;28.23;;;9.55;;
22470;SDS011;11402;51.374;6.594;2023-12-20T02:34:57;23.00;;;8.18;;
22470;SDS011;11402;51.374;6.594;2023-12-20T02:37:24;33.88;;;9.68;;
22470;SDS011;11402;51.374;6.594;2023-12-20T02:39:50;31.23;;;9.15;;
22470;SDS011;11402;51.374;6.594;2023-12-20T02:42:16;22.38;;;8.20;;
22470;SDS011;11402;51.374;6.594;2023-12-20T02:44:42;26.13;;;7.60;;
22470;SDS011;11402;51.374;6.594;2023-12-20T02:47:08;21.52;;;6.78;;
22470;SDS011;11402;51.374;6.594;2023-12-20T02:49:34;23.67;;;6.93;;
22470;SDS011;11402;51.374;6.594;2023-12-20T02:52:00;33.50;;;6.35;;
22470;SDS011;11402;51.374;6.594;2023-12-20T02:54:26;24.42;;;5.95;;
22470;SDS011;11402;51.374;6.594;2023-12-20T02:56:52;24.88;;;5.78;;
22470;SDS011;11402;51.374;6.594;2023-12-20T02:59:18;24.98;;;5.57;;
22470;SDS011;11402;51.374;6.594;2023-12-20T03:01:44;22.58;;;5.00;;
22470;SDS011;11402;51.374;6.594;2023-12-20T03:04:11;19.77;;;4.03;;
22470;SDS011;11402;51.374;6.594;2023-12-20T03:06:37;19.52;;;4.47;;
22470;SDS011;11402;51.374;6.594;2023-12-20T03:09:03;26.88;;;4.53;;
22470;SDS011;11402;51.374;6.594;2023-12-20T03:11:29;22.75;;;4.43;;
22470;SDS011;11402;51.374;6.594;2023-12-20T03:13:55;17.70;;;4.50;;
22470;SDS011;11402;51.374;6.594;2023-12-20T03:16:21;15.27;;;4.10;;
22470;SDS011;11402;51.374;6.594;2023-12-20T03:18:47;20.80;;;3.85;;
22470;SDS011;11402;51.374;6.594;2023-12-20T03:21:13;14.95;;;3.75;;
22470;SDS011;11402;51.374;6.594;2023-12-20T03:23:40;20.30;;;3.72;;
22470;SDS011;11402;51.374;6.594;2023-12-20T03:26:07;23.90;;;4.75;;
22470;SDS011;11402;51.374;6.594;2023-12-20T03:28:33;25.45;;;4.72;;
22470;SDS011;11402;51.374;6.594;2023-12-20T03:30:59;22.23;;;3.80;;
22470;SDS011;11402;51.374;6.594;2023-12-20T03:33:25;22.73;;;4.20;;
22470;SDS011;11402;51.374;6.594;2023-12-20T03:35:51;17.90;;;3.72;;
22470;SDS011;11402;51.374;6.594;2023-12-20T03:38:17;17.13;;;3.88;;
22470;SDS011;11402;51.374;6.594;2023-12-20T03:40:43;19.95;;;3.47;;
22470;SDS011;11402;51.374;6.594;2023-12-20T03:43:09;20.52;;;4.05;;
22470;SDS011;11402;51.374;6.594;2023-12-20T03:45:35;15.57;;;3.20;;
22470;SDS011;11402;51.374;6.594;2023-12-20T03:48:01;19.70;;;3.85;;
22470;SDS011;11402;51.374;6.594;2023-12-20T03:50:27;22.73;;;4.60;;
22470;SDS011;11402;51.374;6.594;2023-12-20T03:52:53;26.77;;;4.70;;
22470;SDS011;11402;51.374;6.594;2023-12-20T03:55:19;15.00;;;3.90;;
22470;SDS011;11402;51.374;6.594;2023-12-20T03:57:45;33.20;;;4.40;;
22470;SDS011;11402;51.374;6.594;2023-12-20T04:00:11;18.38;;;4.75;;
22470;SDS011;11402;51.374;6.594;2023-12-20T04:02:40;17.30;;;4.15;;
22470;SDS011;11402;51.374;6.594;2023-12-20T04:05:07;23.40;;;5.03;;
22470;SDS011;11402;51.374;6.594;2023-12-20T04:07:33;23.67;;;4.07;;
22470;SDS011;11402;51.374;6.594;2023-12-20T04:09:59;17.45;;;3.92;;
22470;SDS011;11402;51.374;6.594;2023-12-20T04:12:25;27.73;;;4.43;;
22470;SDS011;11402;51.374;6.594;2023-12-20T04:14:51;19.70;;;4.25;;
22470;SDS011;11402;51.374;6.594;2023-12-20T04:17:17;14.45;;;3.60;;
22470;SDS011;11402;51.374;6.594;2023-12-20T04:19:44;11.10;;;3.92;;
22470;SDS011;11402;51.374;6.594;2023-12-20T04:22:10;29.92;;;5.82;;
22470;SDS011;11402;51.374;6.594;2023-12-20T04:24:35;24.88;;;6.45;;
22470;SDS011;11402;51.374;6.594;2023-12-20T04:27:02;20.58;;;5.93;;
22470;SDS011;11402;51.374;6.594;2023-12-20T04:29:28;26.80;;;6.68;;
22470;SDS011;11402;51.374;6.594;2023-12-20T04:31:54;24.42;;;6.53;;
22470;SDS011;11402;51.374;6.594;2023-12-20T04:34:20;23.10;;;6.13;;
22470;SDS011;11402;51.374;6.594;2023-12-20T04:36:46;20.33;;;7.43;;
22470;SDS011;11402;51.374;6.594;2023-12-20T04:39:12;26.50;;;7.35;;
22470;SDS011;11402;51.374;6.594;2023-12-20T04:41:40;24.65;;;7.82;;
22470;SDS011;11402;51.374;6.594;2023-12-20T04:44:06;36.40;;;8.73;;
22470;SDS011;11402;51.374;6.594;2023-12-20T04:46:32;23.65;;;8.07;;
22470;SDS011;11402;51.374;6.594;2023-12-20T04:48:57;33.75;;;8.98;;
22470;SDS011;11402;51.374;6.594;2023-12-20T04:51:23;29.67;;;9.27;;
22470;SDS011;11402;51.374;6.594;2023-12-20T04:53:49;25.70;;;7.47;;
22470;SDS011;11402;51.374;6.594;2023-12-20T04:56:15;26.67;;;8.85;;
22470;SDS011;11402;51.374;6.594;2023-12-20T04:58:44;34.63;;;9.88;;
22470;SDS011;11402;51.374;6.594;2023-12-20T05:01:10;29.00;;;9.43;;
22470;SDS011;11402;51.374;6.594;2023-12-20T05:03:36;23.90;;;9.20;;
22470;SDS011;11402;51.374;6.594;2023-12-20T05:06:02;38.35;;;10.35;;
22470;SDS011;11402;51.374;6.594;2023-12-20T05:08:29;29.50;;;9.10;;
22470;SDS011;11402;51.374;6.594;2023-12-20T05:10:55;34.03;;;9.43;;
22470;SDS011;11402;51.374;6.594;2023-12-20T05:13:21;30.17;;;9.38;;
22470;SDS011;11402;51.374;6.594;2023-12-20T05:15:47;29.02;;;8.90;;
22470;SDS011;11402;51.374;6.594;2023-12-20T05:18:13;38.22;;;10.60;;
22470;SDS011;11402;51.374;6.594;2023-12-20T05:20:39;28.90;;;9.73;;
22470;SDS011;11402;51.374;6.594;2023-12-20T05:23:05;34.95;;;9.18;;
22470;SDS011;11402;51.374;6.594;2023-12-20T05:25:31;28.77;;;8.52;;
22470;SDS011;11402;51.374;6.594;2023-12-20T05:27:57;41.95;;;9.32;;
22470;SDS011;11402;51.374;6.594;2023-12-20T05:30:23;30.92;;;9.70;;
22470;SDS011;11402;51.374;6.594;2023-12-20T05:32:49;32.13;;;10.18;;
22470;SDS011;11402;51.374;6.594;2023-12-20T05:35:16;38.47;;;9.57;;
22470;SDS011;11402;51.374;6.594;2023-12-20T05:37:42;27.60;;;9.85;;
22470;SDS011;11402;51.374;6.594;2023-12-20T05:40:08;34.60;;;10.38;;
22470;SDS011;11402;51.374;6.594;2023-12-20T05:42:35;30.70;;;9.27;;
22470;SDS011;11402;51.374;6.594;2023-12-20T05:45:01;38.45;;;9.38;;
22470;SDS011;11402;51.374;6.594;2023-12-20T05:47:27;42.35;;;10.15;;
22470;SDS011;11402;51.374;6.594;2023-12-20T05:49:53;42.20;;;10.27;;
22470;SDS011;11402;51.374;6.594;2023-12-20T05:52:19;36.20;;;9.88;;
22470;SDS011;11402;51.374;6.594;2023-12-20T05:54:45;42.58;;;11.15;;
22470;SDS011;11402;51.374;6.594;2023-12-20T05:57:11;40.75;;;10.77;;
22470;SDS011;11402;51.374;6.594;2023-12-20T05:59:37;40.78;;;10.93;;
22470;SDS011;11402;51.374;6.594;2023-12-20T06:02:03;37.83;;;11.75;;
22470;SDS011;11402;51.374;6.594;2023-12-20T06:04:30;37.15;;;10.75;;
22470;SDS011;11402;51.374;6.594;2023-12-20T06:06:56;40.70;;;10.70;;
22470;SDS011;11402;51.374;6.594;2023-12-20T06:09:22;29.40;;;10.13;;
22470;SDS011;11402;51.374;6.594;2023-12-20T06:11:48;47.65;;;13.77;;
22470;SDS011;11402;51.374;6.594;2023-12-20T06:14:14;75.00;;;19.20;;
22470;SDS011;11402;51.374;6.594;2023-12-20T06:16:40;76.10;;;18.65;;
22470;SDS011;11402;51.374;6.594;2023-12-20T06:19:06;68.13;;;18.17;;
22470;SDS011;11402;51.374;6.594;2023-12-20T06:21:32;65.20;;;16.60;;
22470;SDS011;11402;51.374;6.594;2023-12-20T06:23:58;55.97;;;14.32;;
22470;SDS011;11402;51.374;6.594;2023-12-20T06:26:25;42.67;;;12.15;;
22470;SDS011;11402;51.374;6.594;2023-12-20T06:28:51;38.40;;;10.35;;
22470;SDS011;11402;51.374;6.594;2023-12-20T06:31:17;35.22;;;9.27;;
22470;SDS011;11402;51.374;6.594;2023-12-20T06:33:43;40.28;;;8.95;;
22470;SDS011;11402;51.374;6.594;2023-12-20T06:36:12;33.38;;;8.57;;
22470;SDS011;11402;51.374;6.594;2023-12-20T06:38:38;35.22;;;9.20;;
22470;SDS011;11402;51.374;6.594;2023-12-20T06:41:04;39.58;;;8.63;;
22470;SDS011;11402;51.374;6.594;2023-12-20T06:43:31;33.85;;;8.45;;
22470;SDS011;11402;51.374;6.594;2023-12-20T06:45:57;28.75;;;8.40;;
22470;SDS011;11402;51.374;6.594;2023-12-20T06:48:23;34.30;;;8.20;;
22470;SDS011;11402;51.374;6.594;2023-12-20T06:50:49;26.15;;;7.38;;
22470;SDS011;11402;51.374;6.594;2023-12-20T06:53:15;22.95;;;6.82;;
22470;SDS011;11402;51.374;6.594;2023-12-20T06:55:41;36.08;;;7.43;;
22470;SDS011;11402;51.374;6.594;2023-12-20T06:58:07;35.08;;;7.80;;
22470;SDS011;11402;51.374;6.594;2023-12-20T07:00:34;36.30;;;8.25;;
22470;SDS011;11402;51.374;6.594;2023-12-20T07:03:00;30.17;;;7.22;;
22470;SDS011;11402;51.374;6.594;2023-12-20T07:05:26;26.60;;;6.65;;
22470;SDS011;11402;51.374;6.594;2023-12-20T07:07:52;32.55;;;8.15;;
22470;SDS011;11402;51.374;6.594;2023-12-20T07:10:18;32.10;;;7.85;;
22470;SDS011;11402;51.374;6.594;2023-12-20T07:12:44;32.25;;;8.07;;
22470;SDS011;11402;51.374;6.594;2023-12-20T07:15:10;29.67;;;7.55;;
22470;SDS011;11402;51.374;6.594;2023-12-20T07:17:36;31.38;;;7.82;;
22470;SDS011;11402;51.374;6.594;2023-12-20T07:20:02;34.25;;;7.70;;
22470;SDS011;11402;51.374;6.594;2023-12-20T07:22:31;31.02;;;8.18;;
22470;SDS011;11402;51.374;6.594;2023-12-20T07:24:57;30.00;;;7.82;;
22470;SDS011;11402;51.374;6.594;2023-12-20T07:27:23;25.95;;;8.38;;
22470;SDS011;11402;51.374;6.594;2023-12-20T07:29:49;34.78;;;8.77;;
22470;SDS011;11402;51.374;6.594;2023-12-20T07:32:15;35.28;;;8.20;;
22470;SDS011;11402;51.374;6.594;2023-12-20T07:34:41;30.27;;;8.57;;
22470;SDS011;11402;51.374;6.594;2023-12-20T07:37:07;32.40;;;9.05;;
22470;SDS011;11402;51.374;6.594;2023-12-20T07:39:35;27.25;;;8.57;;
22470;SDS011;11402;51.374;6.594;2023-12-20T07:42:01;28.98;;;8.43;;
22470;SDS011;11402;51.374;6.594;2023-12-20T07:44:27;31.15;;;7.75;;
22470;SDS011;11402;51.374;6.594;2023-12-20T07:46:53;28.33;;;8.68;;
22470;SDS011;11402;51.374;6.594;2023-12-20T07:49:19;28.48;;;9.13;;
22470;SDS011;11402;51.374;6.594;2023-12-20T07:51:45;32.08;;;8.98;;
22470;SDS011;11402;51.374;6.594;2023-12-20T07:54:11;26.98;;;9.25;;
22470;SDS011;11402;51.374;6.594;2023-12-20T07:56:37;33.53;;;10.35;;
22470;SDS011;11402;51.374;6.594;2023-12-20T07:59:05;35.85;;;10.75;;
22470;SDS011;11402;51.374;6.594;2023-12-20T08:01:31;29.25;;;9.88;;
22470;SDS011;11402;51.374;6.594;2023-12-20T08:03:57;34.10;;;9.55;;
22470;SDS011;11402;51.374;6.594;2023-12-20T08:06:22;26.98;;;9.52;;
22470;SDS011;11402;51.374;6.594;2023-12-20T08:08:49;43.20;;;10.85;;
22470;SDS011;11402;51.374;6.594;2023-12-20T08:11:14;27.95;;;9.48;;
22470;SDS011;11402;51.374;6.594;2023-12-20T08:13:40;26.27;;;9.10;;
22470;SDS011;11402;51.374;6.594;2023-12-20T08:16:06;29.42;;;8.88;;
22470;SDS011;11402;51.374;6.594;2023-12-20T08:18:33;32.05;;;9.98;;
22470;SDS011;11402;51.374;6.594;2023-12-20T08:20:59;36.78;;;9.43;;
22470;SDS011;11402;51.374;6.594;2023-12-20T08:23:26;36.50;;;9.93;;
22470;SDS011;11402;51.374;6.594;2023-12-20T08:25:52;30.92;;;8.40;;
22470;SDS011;11402;51.374;6.594;2023-12-20T08:28:18;24.35;;;8.05;;
22470;SDS011;11402;51.374;6.594;2023-12-20T08:30:44;29.40;;;7.78;;
22470;SDS011;11402;51.374;6.594;2023-12-20T08:33:10;22.25;;;7.43;;
22470;SDS011;11402;51.374;6.594;2023-12-20T08:35:38;29.50;;;7.10;;
22470;SDS011;11402;51.374;6.594;2023-12-20T08:38:04;30.70;;;8.07;;
22470;SDS011;11402;51.374;6.594;2023-12-20T08:40:30;24.92;;;6.82;;
22470;SDS011;11402;51.374;6.594;2023-12-20T08:42:56;25.33;;;7.03;;
22470;SDS011;11402;51.374;6.594;2023-12-20T08:45:22;32.05;;;7.10;;
22470;SDS011;11402;51.374;6.594;2023-12-20T08:47:48;26.33;;;6.50;;
22470;SDS011;11402;51.374;6.594;2023-12-20T08:50:14;30.45;;;6.40;;
22470;SDS011;11402;51.374;6.594;2023-12-20T08:52:40;27.90;;;7.53;;
22470;SDS011;11402;51.374;6.594;2023-12-20T08:55:07;32.55;;;6.70;;
22470;SDS011;11402;51.374;6.594;2023-12-20T08:57:34;30.27;;;6.78;;
22470;SDS011;11402;51.374;6.594;2023-12-20T09:00:00;29.63;;;6.10;;
22470;SDS011;11402;51.374;6.594;2023-12-20T09:02:26;29.92;;;5.95;;
22470;SDS011;11402;51.374;6.594;2023-12-20T09:04:53;22.20;;;6.43;;
22470;SDS011;11402;51.374;6.594;2023-12-20T09:07:23;26.08;;;6.25;;
22470;SDS011;11402;51.374;6.594;2023-12-20T09:09:50;30.13;;;5.63;;
22470;SDS011;11402;51.374;6.594;2023-12-20T09:12:17;30.85;;;6.20;;
22470;SDS011;11402;51.374;6.594;2023-12-20T09:14:44;25.50;;;5.25;;
22470;SDS011;11402;51.374;6.594;2023-12-20T09:17:10;31.20;;;6.35;;
22470;SDS011;11402;51.374;6.594;2023-12-20T09:19:37;29.27;;;6.40;;
22470;SDS011;11402;51.374;6.594;2023-12-20T09:22:03;18.88;;;5.75;;
22470;SDS011;11402;51.374;6.594;2023-12-20T09:24:30;28.48;;;6.10;;
22470;SDS011;11402;51.374;6.594;2023-12-20T09:26:55;22.33;;;5.53;;
22470;SDS011;11402;51.374;6.594;2023-12-20T09:29:22;25.05;;;6.40;;
22470;SDS011;11402;51.374;6.594;2023-12-20T09:31:49;29.95;;;5.53;;
22470;SDS011;11402;51.374;6.594;2023-12-20T09:34:15;34.55;;;6.20;;
22470;SDS011;11402;51.374;6.594;2023-12-20T09:36:44;27.20;;;6.20;;
22470;SDS011;11402;51.374;6.594;2023-12-20T09:39:15;25.38;;;5.95;;
22470;SDS011;11402;51.374;6.594;2023-12-20T09:41:44;20.13;;;4.50;;
22470;SDS011;11402;51.374;6.594;2023-12-20T09:44:14;18.75;;;6.07;;
22470;SDS011;11402;51.374;6.594;2023-12-20T09:46:43;26.52;;;5.75;;
22470;SDS011;11402;51.374;6.594;2023-12-20T09:49:09;24.83;;;5.78;;
22470;SDS011;11402;51.374;6.594;2023-12-20T09:51:35;20.65;;;5.55;;
22470;SDS011;11402;51.374;6.594;2023-12-20T09:54:04;18.80;;;4.35;;
22470;SDS011;11402;51.374;6.594;2023-12-20T09:56:30;26.17;;;6.20;;
22470;SDS011;11402;51.374;6.594;2023-12-20T09:58:56;21.45;;;4.93;;
22470;SDS011;11402;51.374;6.594;2023-12-20T10:01:23;21.20;;;5.65;;
22470;SDS011;11402;51.374;6.594;2023-12-20T10:03:50;33.65;;;6.95;;
22470;SDS011;11402;51.374;6.594;2023-12-20T10:06:17;26.27;;;6.60;;
22470;SDS011;11402;51.374;6.594;2023-12-20T10:08:43;23.63;;;5.35;;
22470;SDS011;11402;51.374;6.594;2023-12-20T10:11:09;24.20;;;6.10;;
22470;SDS011;11402;51.374;6.594;2023-12-20T10:13:39;24.45;;;6.07;;
22470;SDS011;11402;51.374;6.594;2023-12-20T10:16:06;23.38;;;6.03;;
22470;SDS011;11402;51.374;6.594;2023-12-20T10:18:32;29.30;;;6.63;;
22470;SDS011;11402;51.374;6.594;2023-12-20T10:20:58;29.23;;;6.45;;
22470;SDS011;11402;51.374;6.594;2023-12-20T10:23:25;20.38;;;5.68;;
22470;SDS011;11402;51.374;6.594;2023-12-20T10:25:58;19.30;;;5.85;;
22470;SDS011;11402;51.374;6.594;2023-12-20T10:28:24;19.23;;;3.87;;
22470;SDS011;11402;51.374;6.594;2023-12-20T10:30:52;23.10;;;5.63;;
22470;SDS011;11402;51.374;6.594;2023-12-20T10:33:24;26.02;;;5.95;;
22470;SDS011;11402;51.374;6.594;2023-12-20T10:35:51;19.13;;;5.70;;
22470;SDS011;11402;51.374;6.594;2023-12-20T10:38:17;28.08;;;5.90;;
22470;SDS011;11402;51.374;6.594;2023-12-20T10:40:45;29.25;;;6.50;;
22470;SDS011;11402;51.374;6.594;2023-12-20T10:43:11;32.60;;;6.60;;
22470;SDS011;11402;51.374;6.594;2023-12-20T10:45:38;27.77;;;6.60;;
22470;SDS011;11402;51.374;6.594;2023-12-20T10:48:04;23.25;;;6.03;;
22470;SDS011;11402;51.374;6.594;2023-12-20T10:50:30;25.30;;;5.78;;
22470;SDS011;11402;51.374;6.594;2023-12-20T10:52:57;28.23;;;6.32;;
22470;SDS011;11402;51.374;6.594;2023-12-20T10:55:23;21.83;;;5.60;;
22470;SDS011;11402;51.374;6.594;2023-12-20T10:57:50;18.73;;;5.18;;
22470;SDS011;11402;51.374;6.594;2023-12-20T11:00:18;21.98;;;5.57;;
22470;SDS011;11402;51.374;6.594;2023-12-20T11:02:44;23.15;;;5.45;;
22470;SDS011;11402;51.374;6.594;2023-12-20T11:05:19;25.33;;;6.00;;
22470;SDS011;11402;51.374;6.594;2023-12-20T11:07:52;27.77;;;6.20;;
22470;SDS011;11402;51.374;6.594;2023-12-20T11:10:23;19.20;;;5.45;;
22470;SDS011;11402;51.374;6.594;2023-12-20T11:12:54;27.98;;;6.57;;
22470;SDS011;11402;51.374;6.594;2023-12-20T11:15:23;22.40;;;6.35;;
22470;SDS011;11402;51.374;6.594;2023-12-20T11:17:55;23.58;;;5.38;;
22470;SDS011;11402;51.374;6.594;2023-12-20T11:20:35;27.38;;;6.05;;
22470;SDS011;11402;51.374;6.594;2023-12-20T11:23:01;24.38;;;6.13;;
22470;SDS011;11402;51.374;6.594;2023-12-20T11:25:27;25.85;;;5.53;;
22470;SDS011;11402;51.374;6.594;2023-12-20T11:28:09;20.65;;;5.35;;
22470;SDS011;11402;51.374;6.594;2023-12-20T11:33:07;23.70;;;6.07;;
22470;SDS011;11402;51.374;6.594;2023-12-20T11:35:34;23.85;;;5.68;;
22470;SDS011;11402;51.374;6.594;2023-12-20T11:38:01;21.75;;;6.35;;
22470;SDS011;11402;51.374;6.594;2023-12-20T11:40:27;29.95;;;6.18;;
22470;SDS011;11402;51.374;6.594;2023-12-20T11:42:53;21.20;;;5.95;;
22470;SDS011;11402;51.374;6.594;2023-12-20T11:45:21;22.58;;;5.95;;
22470;SDS011;11402;51.374;6.594;2023-12-20T11:47:48;27.48;;;5.82;;
22470;SDS011;11402;51.374;6.594;2023-12-20T11:50:19;18.35;;;5.53;;
22470;SDS011;11402;51.374;6.594;2023-12-20T11:52:46;20.35;;;5.32;;
22470;SDS011;11402;51.374;6.594;2023-12-20T11:55:12;24.83;;;5.75;;
22470;SDS011;11402;51.374;6.594;2023-12-20T11:57:38;24.67;;;5.20;;
22470;SDS011;11402;51.374;6.594;2023-12-20T12:00:04;21.60;;;5.38;;
22470;SDS011;11402;51.374;6.594;2023-12-20T12:02:31;19.35;;;5.68;;
22470;SDS011;11402;51.374;6.594;2023-12-20T12:04:57;20.48;;;5.65;;
22470;SDS011;11402;51.374;6.594;2023-12-20T12:07:23;24.27;;;5.80;;
22470;SDS011;11402;51.374;6.594;2023-12-20T12:09:49;21.23;;;6.15;;
22470;SDS011;11402;51.374;6.594;2023-12-20T12:12:16;23.60;;;6.47;;
22470;SDS011;11402;51.374;6.594;2023-12-20T12:14:44;23.73;;;7.70;;
22470;SDS011;11402;51.374;6.594;2023-12-20T12:17:13;26.10;;;8.30;;
22470;SDS011;11402;51.374;6.594;2023-12-20T12:19:42;23.20;;;8.52;;
22470;SDS011;11402;51.374;6.594;2023-12-20T12:22:09;24.60;;;7.72;;
22470;SDS011;11402;51.374;6.594;2023-12-20T12:24:37;21.88;;;6.95;;
22470;SDS011;11402;51.374;6.594;2023-12-20T12:27:05;27.60;;;7.13;;
22470;SDS011;11402;51.374;6.594;2023-12-20T12:29:31;29.95;;;6.50;;
22470;SDS011;11402;51.374;6.594;2023-12-20T12:31:57;27.75;;;7.55;;
22470;SDS011;11402;51.374;6.594;2023-12-20T12:34:23;27.20;;;8.27;;
22470;SDS011;11402;51.374;6.594;2023-12-20T12:36:51;27.38;;;7.65;;
22470;SDS011;11402;51.374;6.594;2023-12-20T12:39:17;27.75;;;7.65;;
22470;SDS011;11402;51.374;6.594;2023-12-20T12:41:43;24.48;;;7.93;;
22470;SDS011;11402;51.374;6.594;2023-12-20T12:44:09;33.45;;;7.38;;
22470;SDS011;11402;51.374;6.594;2023-12-20T12:46:35;28.08;;;7.55;;
22470;SDS011;11402;51.374;6.594;2023-12-20T12:49:01;24.30;;;7.47;;
22470;SDS011;11402;51.374;6.594;2023-12-20T12:51:27;32.38;;;8.85;;
22470;SDS011;11402;51.374;6.594;2023-12-20T12:53:53;22.00;;;7.60;;
22470;SDS011;11402;51.374;6.594;2023-12-20T12:56:19;25.10;;;8.38;;
22470;SDS011;11402;51.374;6.594;2023-12-20T12:58:47;24.52;;;8.07;;
22470;SDS011;11402;51.374;6.594;2023-12-20T13:01:13;27.55;;;8.07;;
22470;SDS011;11402;51.374;6.594;2023-12-20T13:03:39;25.70;;;8.48;;
22470;SDS011;11402;51.374;6.594;2023-12-20T13:06:05;30.08;;;8.43;;
22470;SDS011;11402;51.374;6.594;2023-12-20T13:08:33;30.95;;;8.88;;
22470;SDS011;11402;51.374;6.594;2023-12-20T13:10:59;23.13;;;7.85;;
22470;SDS011;11402;51.374;6.594;2023-12-20T13:13:28;27.55;;;8.45;;
22470;SDS011;11402;51.374;6.594;2023-12-20T13:15:54;23.20;;;7.50;;
22470;SDS011;11402;51.374;6.594;2023-12-20T13:18:21;30.15;;;8.85;;
22470;SDS011;11402;51.374;6.594;2023-12-20T13:20:47;28.13;;;8.27;;
22470;SDS011;11402;51.374;6.594;2023-12-20T13:23:13;28.70;;;9.00;;
22470;SDS011;11402;51.374;6.594;2023-12-20T13:25:40;32.10;;;8.90;;
22470;SDS011;11402;51.374;6.594;2023-12-20T13:28:06;27.92;;;8.75;;
22470;SDS011;11402;51.374;6.594;2023-12-20T13:30:33;27.23;;;8.43;;
22470;SDS011;11402;51.374;6.594;2023-12-20T13:32:59;29.27;;;8.23;;
22470;SDS011;11402;51.374;6.594;2023-12-20T13:35:25;26.52;;;8.65;;
22470;SDS011;11402;51.374;6.594;2023-12-20T13:37:51;28.02;;;9.82;;
22470;SDS011;11402;51.374;6.594;2023-12-20T13:40:18;30.13;;;9.40;;
22470;SDS011;11402;51.374;6.594;2023-12-20T13:42:44;28.88;;;9.90;;
22470;SDS011;11402;51.374;6.594;2023-12-20T13:45:10;23.10;;;9.35;;
22470;SDS011;11402;51.374;6.594;2023-12-20T13:47:36;26.25;;;9.70;;
22470;SDS011;11402;51.374;6.594;2023-12-20T13:50:03;25.85;;;10.00;;
22470;SDS011;11402;51.374;6.594;2023-12-20T13:52:30;25.90;;;9.95;;
22470;SDS011;11402;51.374;6.594;2023-12-20T13:54:56;27.35;;;10.38;;
22470;SDS011;11402;51.374;6.594;2023-12-20T13:57:22;28.65;;;11.02;;
22470;SDS011;11402;51.374;6.594;2023-12-20T13:59:48;25.15;;;11.23;;
22470;SDS011;11402;51.374;6.594;2023-12-20T14:02:14;33.35;;;11.50;;
22470;SDS011;11402;51.374;6.594;2023-12-20T14:04:41;28.05;;;10.35;;
22470;SDS011;11402;51.374;6.594;2023-12-20T14:07:07;32.22;;;11.45;;
22470;SDS011;11402;51.374;6.594;2023-12-20T14:09:34;26.05;;;10.45;;
22470;SDS011;11402;51.374;6.594;2023-12-20T14:12:00;26.95;;;11.23;;
22470;SDS011;11402;51.374;6.594;2023-12-20T14:14:26;29.67;;;10.90;;
22470;SDS011;11402;51.374;6.594;2023-12-20T14:16:52;29.85;;;10.45;;
22470;SDS011;11402;51.374;6.594;2023-12-20T14:19:18;32.50;;;10.55;;
22470;SDS011;11402;51.374;6.594;2023-12-20T14:21:44;30.63;;;10.70;;
22470;SDS011;11402;51.374;6.594;2023-12-20T14:24:13;26.05;;;9.52;;
22470;SDS011;11402;51.374;6.594;2023-12-20T14:26:40;33.05;;;11.43;;
22470;SDS011;11402;51.374;6.594;2023-12-20T14:29:06;31.65;;;11.20;;